createdAt,value
2022-09-12T00:08:32.310Z,11.9
2022-09-12T00:18:33.044Z,11.9
2022-09-12T00:28:33.941Z,11.7
2022-09-12T00:38:34.551Z,11.7
2022-09-12T00:58:35.928Z,11.5
2022-09-12T01:08:36.048Z,11.4
2022-09-12T01:18:36.311Z,11.4
2022-09-12T01:28:36.342Z,11.2
2022-09-12T01:38:36.749Z,11.1
2022-09-12T01:48:37.194Z,11.1
2022-09-12T02:08:38.141Z,11
2022-09-12T02:18:39.099Z,11
2022-09-12T02:28:39.348Z,10.9
2022-09-12T02:38:39.771Z,10.9
2022-09-12T02:48:41.511Z,10.9
2022-09-12T02:58:40.498Z,10.9
2022-09-12T03:08:41.394Z,10.9
2022-09-12T03:18:43.831Z,10.9
2022-09-12T03:30:35.158Z,10.8
2022-09-12T03:45:16.617Z,10.8
2022-09-12T04:08:48.973Z,10.6
2022-09-12T04:18:50.102Z,10.5
2022-09-12T04:28:50.458Z,10.4
2022-09-12T04:48:54.596Z,10.4
2022-09-12T04:58:51.187Z,10.3
2022-09-12T05:28:52.515Z,10.4
2022-09-12T05:38:52.580Z,10.4
2022-09-12T05:48:56.050Z,10.7
2022-09-12T05:58:53.313Z,11
2022-09-12T06:08:55.121Z,11.3
2022-09-12T06:18:54.491Z,11.6
2022-09-12T06:28:56.466Z,12
2022-09-12T06:38:55.824Z,12.6
2022-09-12T07:18:58.123Z,13.9
2022-09-12T07:38:59.854Z,15
2022-09-12T07:49:01.164Z,15.6
2022-09-12T07:59:01.050Z,15.9
2022-09-12T08:14:24.732Z,17.2
2022-09-12T08:18:59.559Z,17.4
2022-09-12T08:29:00.496Z,17.7
2022-09-12T08:39:00.785Z,18.1
2022-09-12T08:49:00.819Z,18.6
2022-09-12T08:59:01.343Z,18.9
2022-09-12T09:09:02.056Z,19.1
2022-09-12T09:19:02.218Z,19.3
2022-09-12T09:39:03.696Z,19.5
2022-09-12T09:49:03.875Z,20.2
2022-09-12T09:59:04.089Z,20.2
2022-09-12T10:19:11.383Z,20.9
2022-09-12T10:29:12.118Z,20.9
2022-09-12T10:39:12.286Z,21.3
2022-09-12T10:49:12.350Z,21.8
2022-09-12T10:59:15.724Z,21.9
2022-09-12T11:09:14.150Z,21.8
2022-09-12T11:19:14.231Z,22.2
2022-09-12T11:29:15.026Z,22.5
2022-09-12T11:39:15.605Z,22.2
2022-09-12T11:49:16.396Z,23
2022-09-12T11:59:16.767Z,22.7
2022-09-12T12:09:17.176Z,23.7
2022-09-12T12:39:19.620Z,24.2
2022-09-12T12:49:20.439Z,24.5
2022-09-12T12:59:20.772Z,24.3
2022-09-12T13:09:21.702Z,24.8
2022-09-12T13:19:22.030Z,25.1
2022-09-12T13:29:22.925Z,25.2
2022-09-12T13:39:23.301Z,24.7
2022-09-12T13:49:23.944Z,25.5
2022-09-12T13:49:45.863Z,25.5
2022-09-12T13:59:30.108Z,25.2
2022-09-12T14:09:30.523Z,24.9
2022-09-12T14:19:30.872Z,24.8
2022-09-12T14:39:31.632Z,25.1
2022-09-12T14:49:32.318Z,25.1
2022-09-12T14:59:32.919Z,24.8
2022-09-12T15:09:33.439Z,24.9
2022-09-12T15:19:34.271Z,24.9
2022-09-12T15:29:34.542Z,24.9
2022-09-12T15:39:35.495Z,25
2022-09-12T15:49:36.173Z,25.1
2022-09-12T15:59:37.097Z,24.8
2022-09-12T16:09:38.111Z,24.9
2022-09-12T16:19:39.135Z,24.6
2022-09-12T16:29:39.635Z,24.8
2022-09-12T16:39:40.526Z,25.2
2022-09-12T16:49:40.968Z,25
2022-09-12T16:59:41.079Z,24.2
2022-09-12T17:09:43.294Z,24.5
2022-09-12T17:19:41.498Z,24.3
2022-09-12T17:29:42.228Z,23.4
2022-09-12T17:39:42.639Z,22.4
2022-09-12T17:49:43.193Z,21.7
2022-09-12T17:59:44.123Z,21
2022-09-12T18:09:44.937Z,20.5
2022-09-12T18:19:45.174Z,20.1
2022-09-12T18:29:55.230Z,19.6
2022-09-12T18:39:46.248Z,19.3
2022-09-12T18:49:46.618Z,19.2
2022-09-12T18:59:47.266Z,18.9
2022-09-12T19:09:48.169Z,18.7
2022-09-12T19:19:49.168Z,18.5
2022-09-12T19:29:49.671Z,18.4
2022-09-12T19:39:50.360Z,18.5
2022-09-12T19:59:51.511Z,19.2
2022-09-12T20:09:51.778Z,19
2022-09-12T20:19:52.581Z,18.9
2022-09-12T20:29:53.347Z,18.9
2022-09-12T20:39:53.570Z,19.1
2022-09-12T20:49:53.990Z,19.2
2022-09-12T20:59:54.378Z,19.6
2022-09-12T21:09:55.052Z,19.7
2022-09-12T21:19:55.517Z,19.8
2022-09-12T21:29:55.762Z,19.7
2022-09-12T21:39:56.174Z,19.5
2022-09-12T21:49:57.004Z,19.4
2022-09-12T22:09:58.605Z,19.1
2022-09-12T22:19:59.329Z,19.1
2022-09-12T22:30:00.373Z,19.3
2022-09-12T22:40:00.752Z,19.1
2022-09-12T22:50:00.829Z,19
2022-09-12T23:00:01.540Z,19.1
2022-09-12T23:10:01.688Z,19
2022-09-12T23:20:02.444Z,18.9
2022-09-12T23:30:02.533Z,18.9
2022-09-12T23:40:02.998Z,18.8
2022-09-12T23:50:03.529Z,18.7
